Des Moines International Airport
KDSM : now visible

Airfield :











YOU CAN JOIN US ON...

 
LOGIN :

Register | Disclaimer

   EN    FR    IT 

 









Legend :    VFR   Marginal VFR   IFR   Intensive IFR   Very Intensive IFR
Visi :
Ceiling :
>= 8 km
>= 3000ft
5 to 8 km
1000 to 3000 ft
1500m to 5 km
500 to 1000 ft
800 to 1500m
200 to 500 ft
< 800m
< 200 ft
Symbols :   Thunderstorms  Fog  Heavy snow  Heavy precipitations  Wind > 20 kt







- Airport Elevation : 958 ft
- IATA code : DSM


KDSM - Des Moines International

CURRENT METAR :
  • 180541Z 34006KT 2SM -SN BR FEW017 BKN028 OVC038 M06/M07 A3011 RMK AO2 SFC VIS 2 1/2 P0000 T10611072

EXPIRED METARs :
  • 180520Z 32007KT 2 1/2SM -SN BR FEW015 BKN028 OVC034 M07/M08 A3011 RMK AO2 P0000 T10671078
  • 180454Z 32008KT 4SM R31/4000VP6000FT -SN BR FEW014 SCT025 OVC032 M07/M08 A3010 RMK AO2 SLP205 SCT025 V BKN P0000 T10671078
  • 180434Z 31009KT 3SM R31/4000VP6000FT -SN BR SCT014 OVC032 M07/M08 A3009 RMK AO2 P0000 T10671078
  • 180419Z 31009KT 2 1/2SM R31/4000VP6000FT -SN BR FEW006 SCT024 OVC040 M07/M08 A3009 RMK AO2 P0000 T10671078
  • 180354Z 32008KT 4SM -SN BR FEW006 SCT022 OVC049 M07/M08 A3007 RMK AO2 SLP197 SCT022 V BKN P0000 T10671078
  • 180254Z 31009KT 5SM -SN BR FEW008 BKN019 OVC024 M06/M07 A3004 RMK AO2 SLP186 P0000 60001 T10611072 51029

TAF KDSM
Valid from the 18 at 06:00 until the 19 at 06:00 UTC


180542Z 1806/1906 33006KT 3SM -SN SCT026 OVC035
FM180800 34007KT P6SM VCSH OVC030
FM181100 34006KT P6SM BKN030
FM181600 34006KT P6SM BKN035
FM182100 33006KT P6SM SCT050
KZMP FIR / North America



MET'MAP, your aeronautical weather chart ! - Copyright ORBIFLY December 2007 - Disclaimer

ORBIFLY MET'MAP TEAM :

Programming & Development : Alexandra Zaïnal
Concept & Development : Baudouin d'Aumeries
Co-Development & Prog : Marc-Olivier Méhu
Technical & hardware support : Manuel Goepfert

Contact : metmap@orbifly.com




SOURCES & CREDITS :

   NOAA       Earth
Advisory